sensor_id;sensor_type;location;lat;lon;timestamp;temperature;humidity
47252;DHT22;32991;51.374;11.586;2022-07-06T00:01:53;16.60;81.10
47252;DHT22;32991;51.374;11.586;2022-07-06T00:04:20;16.60;81.20
47252;DHT22;32991;51.374;11.586;2022-07-06T00:06:47;16.60;81.30
47252;DHT22;32991;51.374;11.586;2022-07-06T00:09:14;16.60;81.30
47252;DHT22;32991;51.374;11.586;2022-07-06T00:11:41;16.60;81.40
47252;DHT22;32991;51.374;11.586;2022-07-06T00:14:09;16.60;81.50
47252;DHT22;32991;51.374;11.586;2022-07-06T00:16:35;16.60;81.40
47252;DHT22;32991;51.374;11.586;2022-07-06T00:19:02;16.60;81.30
47252;DHT22;32991;51.374;11.586;2022-07-06T00:21:29;16.60;81.30
47252;DHT22;32991;51.374;11.586;2022-07-06T00:23:56;16.70;81.50
47252;DHT22;32991;51.374;11.586;2022-07-06T00:26:23;16.70;81.70
47252;DHT22;32991;51.374;11.586;2022-07-06T00:28:49;16.70;81.90
47252;DHT22;32991;51.374;11.586;2022-07-06T00:31:17;16.60;82.10
47252;DHT22;32991;51.374;11.586;2022-07-06T00:33:44;16.60;82.40
47252;DHT22;32991;51.374;11.586;2022-07-06T00:36:11;16.60;82.80
47252;DHT22;32991;51.374;11.586;2022-07-06T00:38:37;16.60;83.10
47252;DHT22;32991;51.374;11.586;2022-07-06T00:41:04;16.50;83.30
47252;DHT22;32991;51.374;11.586;2022-07-06T00:43:54;16.50;83.60
47252;DHT22;32991;51.374;11.586;2022-07-06T00:46:30;16.50;84.30
47252;DHT22;32991;51.374;11.586;2022-07-06T00:48:58;16.40;84.50
47252;DHT22;32991;51.374;11.586;2022-07-06T00:51:30;16.40;84.80
47252;DHT22;32991;51.374;11.586;2022-07-06T00:54:03;16.30;85.20
47252;DHT22;32991;51.374;11.586;2022-07-06T00:56:32;16.30;86.00
47252;DHT22;32991;51.374;11.586;2022-07-06T00:59:02;16.20;86.50
47252;DHT22;32991;51.374;11.586;2022-07-06T01:01:30;16.10;87.20
47252;DHT22;32991;51.374;11.586;2022-07-06T01:03:57;16.10;88.00
47252;DHT22;32991;51.374;11.586;2022-07-06T01:06:23;16.10;88.60
47252;DHT22;32991;51.374;11.586;2022-07-06T01:08:52;16.10;89.20
47252;DHT22;32991;51.374;11.586;2022-07-06T01:11:18;16.10;89.70
47252;DHT22;32991;51.374;11.586;2022-07-06T01:13:47;16.20;90.10
47252;DHT22;32991;51.374;11.586;2022-07-06T01:16:14;16.30;90.30
47252;DHT22;32991;51.374;11.586;2022-07-06T01:18:42;16.30;90.40
47252;DHT22;32991;51.374;11.586;2022-07-06T01:21:13;16.40;90.60
47252;DHT22;32991;51.374;11.586;2022-07-06T01:24:00;16.50;90.90
47252;DHT22;32991;51.374;11.586;2022-07-06T01:26:27;16.50;91.20
47252;DHT22;32991;51.374;11.586;2022-07-06T01:28:54;16.60;91.50
47252;DHT22;32991;51.374;11.586;2022-07-06T01:31:23;16.60;91.70
47252;DHT22;32991;51.374;11.586;2022-07-06T01:33:52;16.60;91.90
47252;DHT22;32991;51.374;11.586;2022-07-06T01:36:19;16.70;92.20
47252;DHT22;32991;51.374;11.586;2022-07-06T01:41:14;16.70;92.80
47252;DHT22;32991;51.374;11.586;2022-07-06T01:43:42;16.60;93.30
47252;DHT22;32991;51.374;11.586;2022-07-06T01:46:10;16.60;93.80
47252;DHT22;32991;51.374;11.586;2022-07-06T01:48:37;16.60;94.30
47252;DHT22;32991;51.374;11.586;2022-07-06T01:51:04;16.60;94.70
47252;DHT22;32991;51.374;11.586;2022-07-06T01:53:32;16.50;95.20
47252;DHT22;32991;51.374;11.586;2022-07-06T01:55:59;16.50;95.70
47252;DHT22;32991;51.374;11.586;2022-07-06T01:58:26;16.50;96.30
47252;DHT22;32991;51.374;11.586;2022-07-06T02:00:53;16.40;96.80
47252;DHT22;32991;51.374;11.586;2022-07-06T02:03:20;16.40;97.40
47252;DHT22;32991;51.374;11.586;2022-07-06T02:05:47;16.30;98.10
47252;DHT22;32991;51.374;11.586;2022-07-06T02:08:14;16.30;98.70
47252;DHT22;32991;51.374;11.586;2022-07-06T02:10:41;16.30;99.10
47252;DHT22;32991;51.374;11.586;2022-07-06T02:13:08;16.30;99.80
47252;DHT22;32991;51.374;11.586;2022-07-06T02:15:34;16.20;99.90
47252;DHT22;32991;51.374;11.586;2022-07-06T02:18:02;16.20;99.90
47252;DHT22;32991;51.374;11.586;2022-07-06T02:20:29;16.20;99.90
47252;DHT22;32991;51.374;11.586;2022-07-06T02:22:56;16.20;99.90
47252;DHT22;32991;51.374;11.586;2022-07-06T02:25:22;16.20;99.90
47252;DHT22;32991;51.374;11.586;2022-07-06T02:27:50;16.20;99.90
47252;DHT22;32991;51.374;11.586;2022-07-06T02:30:17;16.20;99.90
47252;DHT22;32991;51.374;11.586;2022-07-06T02:32:44;16.20;99.90
47252;DHT22;32991;51.374;11.586;2022-07-06T02:35:11;16.20;99.90
47252;DHT22;32991;51.374;11.586;2022-07-06T02:37:39;16.30;99.90
47252;DHT22;32991;51.374;11.586;2022-07-06T02:40:07;16.20;99.90
47252;DHT22;32991;51.374;11.586;2022-07-06T02:42:34;16.10;99.90
47252;DHT22;32991;51.374;11.586;2022-07-06T02:45:01;16.10;99.90
47252;DHT22;32991;51.374;11.586;2022-07-06T02:47:28;16.10;99.90
47252;DHT22;32991;51.374;11.586;2022-07-06T02:49:56;16.10;99.90
47252;DHT22;32991;51.374;11.586;2022-07-06T02:52:22;16.00;99.90
47252;DHT22;32991;51.374;11.586;2022-07-06T02:54:49;16.00;99.90
47252;DHT22;32991;51.374;11.586;2022-07-06T02:57:17;16.00;99.90
47252;DHT22;32991;51.374;11.586;2022-07-06T02:59:44;15.90;99.90
47252;DHT22;32991;51.374;11.586;2022-07-06T03:02:11;15.90;99.90
47252;DHT22;32991;51.374;11.586;2022-07-06T03:04:38;15.80;99.90
47252;DHT22;32991;51.374;11.586;2022-07-06T03:07:05;15.80;99.90
47252;DHT22;32991;51.374;11.586;2022-07-06T03:09:32;15.80;99.90
47252;DHT22;32991;51.374;11.586;2022-07-06T03:11:59;15.70;99.90
47252;DHT22;32991;51.374;11.586;2022-07-06T03:14:28;15.70;99.90
47252;DHT22;32991;51.374;11.586;2022-07-06T03:16:55;15.70;99.90
47252;DHT22;32991;51.374;11.586;2022-07-06T03:19:22;15.70;99.90
47252;DHT22;32991;51.374;11.586;2022-07-06T03:21:49;15.60;99.90
47252;DHT22;32991;51.374;11.586;2022-07-06T03:24:16;15.60;99.90
47252;DHT22;32991;51.374;11.586;2022-07-06T03:26:43;15.50;99.90
47252;DHT22;32991;51.374;11.586;2022-07-06T03:29:12;15.50;99.90
47252;DHT22;32991;51.374;11.586;2022-07-06T03:31:39;15.50;99.90
47252;DHT22;32991;51.374;11.586;2022-07-06T03:34:06;15.40;99.90
47252;DHT22;32991;51.374;11.586;2022-07-06T03:36:34;15.40;99.90
47252;DHT22;32991;51.374;11.586;2022-07-06T03:39:06;15.30;99.90
47252;DHT22;32991;51.374;11.586;2022-07-06T03:41:34;15.30;99.90
47252;DHT22;32991;51.374;11.586;2022-07-06T03:44:02;15.40;99.90
47252;DHT22;32991;51.374;11.586;2022-07-06T03:46:30;15.30;99.90
47252;DHT22;32991;51.374;11.586;2022-07-06T03:48:57;15.40;99.90
47252;DHT22;32991;51.374;11.586;2022-07-06T03:51:24;15.40;99.90
47252;DHT22;32991;51.374;11.586;2022-07-06T03:53:52;15.50;99.90
47252;DHT22;32991;51.374;11.586;2022-07-06T03:56:18;15.60;99.90
47252;DHT22;32991;51.374;11.586;2022-07-06T03:58:59;15.60;99.90
47252;DHT22;32991;51.374;11.586;2022-07-06T04:01:29;15.70;99.90
47252;DHT22;32991;51.374;11.586;2022-07-06T04:03:58;15.70;99.90
47252;DHT22;32991;51.374;11.586;2022-07-06T04:06:25;15.70;99.90
47252;DHT22;32991;51.374;11.586;2022-07-06T04:08:52;15.80;99.90
47252;DHT22;32991;51.374;11.586;2022-07-06T04:11:20;15.80;99.90
47252;DHT22;32991;51.374;11.586;2022-07-06T04:13:47;15.90;99.90
47252;DHT22;32991;51.374;11.586;2022-07-06T04:16:13;16.00;99.90
47252;DHT22;32991;51.374;11.586;2022-07-06T04:18:41;16.10;99.90
47252;DHT22;32991;51.374;11.586;2022-07-06T04:21:09;16.20;99.90
47252;DHT22;32991;51.374;11.586;2022-07-06T04:23:36;16.30;99.90
47252;DHT22;32991;51.374;11.586;2022-07-06T04:26:05;16.30;99.90
47252;DHT22;32991;51.374;11.586;2022-07-06T04:28:35;16.40;99.90
47252;DHT22;32991;51.374;11.586;2022-07-06T04:31:02;16.40;99.90
47252;DHT22;32991;51.374;11.586;2022-07-06T04:33:30;16.40;99.90
47252;DHT22;32991;51.374;11.586;2022-07-06T04:35:58;16.40;99.90
47252;DHT22;32991;51.374;11.586;2022-07-06T04:38:32;16.40;99.90
47252;DHT22;32991;51.374;11.586;2022-07-06T04:41:03;16.40;99.90
47252;DHT22;32991;51.374;11.586;2022-07-06T04:43:30;16.50;99.90
47252;DHT22;32991;51.374;11.586;2022-07-06T04:45:57;16.50;99.90
47252;DHT22;32991;51.374;11.586;2022-07-06T04:48:24;16.60;99.90
47252;DHT22;32991;51.374;11.586;2022-07-06T04:50:52;16.60;99.90
47252;DHT22;32991;51.374;11.586;2022-07-06T04:53:24;16.80;99.90
47252;DHT22;32991;51.374;11.586;2022-07-06T04:55:51;16.90;99.90
47252;DHT22;32991;51.374;11.586;2022-07-06T04:58:19;17.10;99.90
47252;DHT22;32991;51.374;11.586;2022-07-06T05:00:47;17.30;99.90
47252;DHT22;32991;51.374;11.586;2022-07-06T05:03:14;17.40;99.90
47252;DHT22;32991;51.374;11.586;2022-07-06T05:05:41;17.50;99.90
47252;DHT22;32991;51.374;11.586;2022-07-06T05:08:09;17.50;99.90
47252;DHT22;32991;51.374;11.586;2022-07-06T05:10:36;17.50;99.90
47252;DHT22;32991;51.374;11.586;2022-07-06T05:13:03;17.40;99.90
47252;DHT22;32991;51.374;11.586;2022-07-06T05:15:30;17.40;99.90
47252;DHT22;32991;51.374;11.586;2022-07-06T05:17:57;17.50;99.90
47252;DHT22;32991;51.374;11.586;2022-07-06T05:20:25;17.60;99.90
47252;DHT22;32991;51.374;11.586;2022-07-06T05:22:51;17.70;99.90
47252;DHT22;32991;51.374;11.586;2022-07-06T05:25:23;18.00;99.90
47252;DHT22;32991;51.374;11.586;2022-07-06T05:27:51;18.30;99.90
47252;DHT22;32991;51.374;11.586;2022-07-06T05:30:18;18.40;99.30
47252;DHT22;32991;51.374;11.586;2022-07-06T05:32:45;18.40;99.20
47252;DHT22;32991;51.374;11.586;2022-07-06T05:35:12;18.40;98.90
47252;DHT22;32991;51.374;11.586;2022-07-06T05:38:02;18.40;98.60
47252;DHT22;32991;51.374;11.586;2022-07-06T05:40:29;18.50;98.40
47252;DHT22;32991;51.374;11.586;2022-07-06T05:42:57;18.50;98.00
47252;DHT22;32991;51.374;11.586;2022-07-06T05:45:23;18.50;97.80
47252;DHT22;32991;51.374;11.586;2022-07-06T05:47:52;18.50;97.50
47252;DHT22;32991;51.374;11.586;2022-07-06T05:50:38;18.40;97.60
47252;DHT22;32991;51.374;11.586;2022-07-06T05:53:06;18.30;97.70
47252;DHT22;32991;51.374;11.586;2022-07-06T05:55:44;18.30;97.50
47252;DHT22;32991;51.374;11.586;2022-07-06T05:58:12;18.40;97.40
47252;DHT22;32991;51.374;11.586;2022-07-06T06:00:40;18.50;97.20
47252;DHT22;32991;51.374;11.586;2022-07-06T06:03:13;18.50;97.00
47252;DHT22;32991;51.374;11.586;2022-07-06T06:05:40;18.50;96.90
47252;DHT22;32991;51.374;11.586;2022-07-06T06:08:09;18.50;96.60
47252;DHT22;32991;51.374;11.586;2022-07-06T06:10:36;18.40;96.40
47252;DHT22;32991;51.374;11.586;2022-07-06T06:13:07;18.40;96.60
47252;DHT22;32991;51.374;11.586;2022-07-06T06:15:35;18.50;96.30
47252;DHT22;32991;51.374;11.586;2022-07-06T06:18:03;18.50;96.10
47252;DHT22;32991;51.374;11.586;2022-07-06T06:20:30;18.90;95.80
47252;DHT22;32991;51.374;11.586;2022-07-06T06:22:58;19.20;94.90
47252;DHT22;32991;51.374;11.586;2022-07-06T06:27:55;19.50;93.90
47252;DHT22;32991;51.374;11.586;2022-07-06T06:30:22;19.60;93.60
47252;DHT22;32991;51.374;11.586;2022-07-06T06:32:49;19.70;93.00
47252;DHT22;32991;51.374;11.586;2022-07-06T06:35:16;19.60;93.10
47252;DHT22;32991;51.374;11.586;2022-07-06T06:37:43;19.60;93.00
47252;DHT22;32991;51.374;11.586;2022-07-06T06:40:10;20.00;93.00
47252;DHT22;32991;51.374;11.586;2022-07-06T06:42:37;20.60;91.10
47252;DHT22;32991;51.374;11.586;2022-07-06T06:45:09;20.90;88.50
47252;DHT22;32991;51.374;11.586;2022-07-06T06:47:36;21.40;87.00
47252;DHT22;32991;51.374;11.586;2022-07-06T06:50:03;22.10;85.00
47252;DHT22;32991;51.374;11.586;2022-07-06T06:52:29;23.00;81.80
47252;DHT22;32991;51.374;11.586;2022-07-06T06:55:07;24.00;78.00
47252;DHT22;32991;51.374;11.586;2022-07-06T06:57:34;24.70;72.90
47252;DHT22;32991;51.374;11.586;2022-07-06T07:00:00;24.70;69.60
47252;DHT22;32991;51.374;11.586;2022-07-06T07:02:28;24.40;69.90
47252;DHT22;32991;51.374;11.586;2022-07-06T07:04:55;23.80;69.60
47252;DHT22;32991;51.374;11.586;2022-07-06T07:07:22;23.20;69.80
47252;DHT22;32991;51.374;11.586;2022-07-06T07:09:49;22.60;71.90
47252;DHT22;32991;51.374;11.586;2022-07-06T07:12:15;22.30;72.10
47252;DHT22;32991;51.374;11.586;2022-07-06T07:14:44;22.20;72.70
47252;DHT22;32991;51.374;11.586;2022-07-06T07:17:11;22.10;72.90
47252;DHT22;32991;51.374;11.586;2022-07-06T07:19:40;22.50;72.30
47252;DHT22;32991;51.374;11.586;2022-07-06T07:22:07;23.30;70.60
47252;DHT22;32991;51.374;11.586;2022-07-06T07:24:34;24.10;69.40
47252;DHT22;32991;51.374;11.586;2022-07-06T07:27:00;25.30;66.20
47252;DHT22;32991;51.374;11.586;2022-07-06T07:29:27;26.30;63.70
47252;DHT22;32991;51.374;11.586;2022-07-06T07:31:54;26.50;59.90
47252;DHT22;32991;51.374;11.586;2022-07-06T07:34:21;26.30;60.50
47252;DHT22;32991;51.374;11.586;2022-07-06T07:36:49;26.40;59.40
47252;DHT22;32991;51.374;11.586;2022-07-06T07:39:16;25.90;59.90
47252;DHT22;32991;51.374;11.586;2022-07-06T07:41:42;25.10;60.60
47252;DHT22;32991;51.374;11.586;2022-07-06T07:44:09;24.20;61.00
47252;DHT22;32991;51.374;11.586;2022-07-06T07:46:36;23.50;62.80
47252;DHT22;32991;51.374;11.586;2022-07-06T07:49:03;23.00;63.40
47252;DHT22;32991;51.374;11.586;2022-07-06T07:51:32;22.70;65.30
47252;DHT22;32991;51.374;11.586;2022-07-06T07:53:58;22.40;65.70
47252;DHT22;32991;51.374;11.586;2022-07-06T07:56:25;22.20;66.00
47252;DHT22;32991;51.374;11.586;2022-07-06T07:58:52;22.10;66.60
47252;DHT22;32991;51.374;11.586;2022-07-06T08:01:26;22.10;66.50
47252;DHT22;32991;51.374;11.586;2022-07-06T08:03:53;22.30;66.50
47252;DHT22;32991;51.374;11.586;2022-07-06T08:06:19;23.00;65.90
47252;DHT22;32991;51.374;11.586;2022-07-06T08:08:46;23.40;64.80
47252;DHT22;32991;51.374;11.586;2022-07-06T08:11:13;23.30;64.30
47252;DHT22;32991;51.374;11.586;2022-07-06T08:13:44;23.20;64.20
47252;DHT22;32991;51.374;11.586;2022-07-06T08:16:11;23.20;64.50
47252;DHT22;32991;51.374;11.586;2022-07-06T08:18:38;23.30;63.90
47252;DHT22;32991;51.374;11.586;2022-07-06T08:21:05;23.20;64.10
47252;DHT22;32991;51.374;11.586;2022-07-06T08:23:54;23.10;63.80
47252;DHT22;32991;51.374;11.586;2022-07-06T08:26:21;22.90;64.00
47252;DHT22;32991;51.374;11.586;2022-07-06T08:28:48;22.60;64.70
47252;DHT22;32991;51.374;11.586;2022-07-06T08:31:16;22.60;65.10
47252;DHT22;32991;51.374;11.586;2022-07-06T08:34:02;22.60;65.10
47252;DHT22;32991;51.374;11.586;2022-07-06T08:36:29;22.90;63.90
47252;DHT22;32991;51.374;11.586;2022-07-06T08:38:56;23.50;62.50
47252;DHT22;32991;51.374;11.586;2022-07-06T08:41:25;24.10;61.50
47252;DHT22;32991;51.374;11.586;2022-07-06T08:43:53;24.40;59.90
47252;DHT22;32991;51.374;11.586;2022-07-06T08:46:21;24.80;59.20
47252;DHT22;32991;51.374;11.586;2022-07-06T08:48:49;25.20;58.40
47252;DHT22;32991;51.374;11.586;2022-07-06T08:51:17;25.50;58.10
47252;DHT22;32991;51.374;11.586;2022-07-06T08:53:45;25.60;57.90
47252;DHT22;32991;51.374;11.586;2022-07-06T08:56:16;25.50;57.20
47252;DHT22;32991;51.374;11.586;2022-07-06T08:58:43;25.10;57.10
47252;DHT22;32991;51.374;11.586;2022-07-06T09:01:10;24.20;57.90
47252;DHT22;32991;51.374;11.586;2022-07-06T09:03:41;23.40;59.60
47252;DHT22;32991;51.374;11.586;2022-07-06T09:06:09;22.70;60.80
47252;DHT22;32991;51.374;11.586;2022-07-06T09:08:36;22.10;62.50
47252;DHT22;32991;51.374;11.586;2022-07-06T09:11:03;22.20;63.20
47252;DHT22;32991;51.374;11.586;2022-07-06T09:13:30;22.90;62.80
47252;DHT22;32991;51.374;11.586;2022-07-06T09:16:12;23.40;61.40
47252;DHT22;32991;51.374;11.586;2022-07-06T09:18:59;23.60;61.60
47252;DHT22;32991;51.374;11.586;2022-07-06T09:21:30;24.80;59.10
47252;DHT22;32991;51.374;11.586;2022-07-06T09:24:00;25.60;58.10
47252;DHT22;32991;51.374;11.586;2022-07-06T09:26:29;26.20;56.00
47252;DHT22;32991;51.374;11.586;2022-07-06T09:28:57;26.30;55.40
47252;DHT22;32991;51.374;11.586;2022-07-06T09:31:24;26.00;55.80
47252;DHT22;32991;51.374;11.586;2022-07-06T09:34:02;25.80;55.90
47252;DHT22;32991;51.374;11.586;2022-07-06T09:36:46;25.60;56.60
47252;DHT22;32991;51.374;11.586;2022-07-06T09:39:27;25.60;56.10
47252;DHT22;32991;51.374;11.586;2022-07-06T09:42:03;25.30;56.20
47252;DHT22;32991;51.374;11.586;2022-07-06T09:44:38;24.90;56.00
47252;DHT22;32991;51.374;11.586;2022-07-06T09:47:10;24.60;57.40
47252;DHT22;32991;51.374;11.586;2022-07-06T09:49:39;24.70;57.50
47252;DHT22;32991;51.374;11.586;2022-07-06T09:52:08;25.40;57.20
47252;DHT22;32991;51.374;11.586;2022-07-06T09:54:36;26.70;55.00
47252;DHT22;32991;51.374;11.586;2022-07-06T09:57:06;28.20;52.30
47252;DHT22;32991;51.374;11.586;2022-07-06T09:59:36;29.30;51.40
47252;DHT22;32991;51.374;11.586;2022-07-06T10:02:05;29.60;48.60
47252;DHT22;32991;51.374;11.586;2022-07-06T10:04:32;29.00;48.20
47252;DHT22;32991;51.374;11.586;2022-07-06T10:07:00;27.60;49.40
47252;DHT22;32991;51.374;11.586;2022-07-06T10:09:28;26.10;51.70
47252;DHT22;32991;51.374;11.586;2022-07-06T10:11:59;24.90;54.30
47252;DHT22;32991;51.374;11.586;2022-07-06T10:14:32;23.90;55.90
47252;DHT22;32991;51.374;11.586;2022-07-06T10:17:02;23.00;57.90
47252;DHT22;32991;51.374;11.586;2022-07-06T10:19:30;22.50;58.50
47252;DHT22;32991;51.374;11.586;2022-07-06T10:22:00;22.20;59.10
47252;DHT22;32991;51.374;11.586;2022-07-06T10:24:28;22.20;59.30
47252;DHT22;32991;51.374;11.586;2022-07-06T10:26:55;22.90;57.90
47252;DHT22;32991;51.374;11.586;2022-07-06T10:29:24;23.90;57.30
47252;DHT22;32991;51.374;11.586;2022-07-06T10:31:51;24.40;54.40
47252;DHT22;32991;51.374;11.586;2022-07-06T10:34:19;24.40;54.10
47252;DHT22;32991;51.374;11.586;2022-07-06T10:36:51;24.80;54.80
47252;DHT22;32991;51.374;11.586;2022-07-06T10:39:37;26.30;53.60
47252;DHT22;32991;51.374;11.586;2022-07-06T10:42:48;26.80;49.40
47252;DHT22;32991;51.374;11.586;2022-07-06T10:45:49;25.90;50.60
47252;DHT22;32991;51.374;11.586;2022-07-06T10:51:21;26.70;49.60
47252;DHT22;32991;51.374;11.586;2022-07-06T10:53:37;27.60;48.80
47252;DHT22;32991;51.374;11.586;2022-07-06T10:56:09;27.00;48.00
47252;DHT22;32991;51.374;11.586;2022-07-06T11:01:10;24.80;50.20
47252;DHT22;32991;51.374;11.586;2022-07-06T11:03:42;24.10;51.90
47252;DHT22;32991;51.374;11.586;2022-07-06T11:06:32;24.70;51.60
47252;DHT22;32991;51.374;11.586;2022-07-06T11:09:00;25.90;49.60
47252;DHT22;32991;51.374;11.586;2022-07-06T11:14:11;27.10;46.10
47252;DHT22;32991;51.374;11.586;2022-07-06T11:19:19;25.50;46.90
47252;DHT22;32991;51.374;11.586;2022-07-06T11:21:48;24.80;48.50
47252;DHT22;32991;51.374;11.586;2022-07-06T11:24:21;24.90;49.10
47252;DHT22;32991;51.374;11.586;2022-07-06T11:26:50;25.70;48.80
47252;DHT22;32991;51.374;11.586;2022-07-06T11:29:19;26.80;46.90
47252;DHT22;32991;51.374;11.586;2022-07-06T11:31:49;27.50;45.80
47252;DHT22;32991;51.374;11.586;2022-07-06T11:34:22;28.10;45.40
47252;DHT22;32991;51.374;11.586;2022-07-06T11:36:54;28.90;44.20
47252;DHT22;32991;51.374;11.586;2022-07-06T11:39:21;29.40;43.70
47252;DHT22;32991;51.374;11.586;2022-07-06T11:41:48;29.70;43.60
47252;DHT22;32991;51.374;11.586;2022-07-06T11:44:17;29.50;42.80
47252;DHT22;32991;51.374;11.586;2022-07-06T11:46:44;28.00;43.00
47252;DHT22;32991;51.374;11.586;2022-07-06T11:49:11;27.20;44.50
47252;DHT22;32991;51.374;11.586;2022-07-06T11:51:40;27.30;44.60
47252;DHT22;32991;51.374;11.586;2022-07-06T11:54:10;27.80;43.30
47252;DHT22;32991;51.374;11.586;2022-07-06T11:56:37;28.30;42.90
47252;DHT22;32991;51.374;11.586;2022-07-06T11:59:04;27.90;44.10
47252;DHT22;32991;51.374;11.586;2022-07-06T12:01:31;26.70;45.30
47252;DHT22;32991;51.374;11.586;2022-07-06T12:04:01;25.60;47.10
47252;DHT22;32991;51.374;11.586;2022-07-06T12:06:30;24.90;48.00
47252;DHT22;32991;51.374;11.586;2022-07-06T12:08:58;24.30;49.40
47252;DHT22;32991;51.374;11.586;2022-07-06T12:11:45;24.00;50.50
47252;DHT22;32991;51.374;11.586;2022-07-06T12:14:20;24.30;49.50
47252;DHT22;32991;51.374;11.586;2022-07-06T12:16:49;25.20;48.60
47252;DHT22;32991;51.374;11.586;2022-07-06T12:19:16;25.30;47.10
47252;DHT22;32991;51.374;11.586;2022-07-06T12:21:45;24.90;47.00
47252;DHT22;32991;51.374;11.586;2022-07-06T12:24:27;24.70;47.70
47252;DHT22;32991;51.374;11.586;2022-07-06T12:26:55;25.00;46.30
47252;DHT22;32991;51.374;11.586;2022-07-06T12:29:22;25.60;47.00
47252;DHT22;32991;51.374;11.586;2022-07-06T12:31:50;26.10;47.00
47252;DHT22;32991;51.374;11.586;2022-07-06T12:34:22;25.60;47.80
47252;DHT22;32991;51.374;11.586;2022-07-06T12:36:53;25.10;49.30
47252;DHT22;32991;51.374;11.586;2022-07-06T12:39:26;24.90;50.00
47252;DHT22;32991;51.374;11.586;2022-07-06T12:42:04;24.60;50.60
47252;DHT22;32991;51.374;11.586;2022-07-06T12:44:32;25.40;50.40
47252;DHT22;32991;51.374;11.586;2022-07-06T12:47:09;25.90;48.70
47252;DHT22;32991;51.374;11.586;2022-07-06T12:49:38;26.30;48.50
47252;DHT22;32991;51.374;11.586;2022-07-06T12:52:13;26.40;48.00
47252;DHT22;32991;51.374;11.586;2022-07-06T12:54:42;25.70;48.40
47252;DHT22;32991;51.374;11.586;2022-07-06T12:57:13;25.10;49.30
47252;DHT22;32991;51.374;11.586;2022-07-06T12:59:44;24.50;49.90
47252;DHT22;32991;51.374;11.586;2022-07-06T13:02:31;24.30;50.70
47252;DHT22;32991;51.374;11.586;2022-07-06T13:05:23;25.00;50.20
47252;DHT22;32991;51.374;11.586;2022-07-06T13:07:58;26.00;48.40
47252;DHT22;32991;51.374;11.586;2022-07-06T13:10:25;25.90;47.80
47252;DHT22;32991;51.374;11.586;2022-07-06T13:12:52;26.00;47.70
47252;DHT22;32991;51.374;11.586;2022-07-06T13:15:19;25.50;47.30
47252;DHT22;32991;51.374;11.586;2022-07-06T13:17:47;24.70;47.90
47252;DHT22;32991;51.374;11.586;2022-07-06T13:20:14;24.10;49.20
47252;DHT22;32991;51.374;11.586;2022-07-06T13:22:43;23.80;49.20
47252;DHT22;32991;51.374;11.586;2022-07-06T13:25:10;23.60;50.00
47252;DHT22;32991;51.374;11.586;2022-07-06T13:27:37;23.50;51.20
47252;DHT22;32991;51.374;11.586;2022-07-06T13:30:04;23.30;52.10
47252;DHT22;32991;51.374;11.586;2022-07-06T13:32:31;23.30;52.20
47252;DHT22;32991;51.374;11.586;2022-07-06T13:34:59;23.50;52.50
47252;DHT22;32991;51.374;11.586;2022-07-06T13:37:26;24.20;51.30
47252;DHT22;32991;51.374;11.586;2022-07-06T13:39:52;24.50;49.90
47252;DHT22;32991;51.374;11.586;2022-07-06T13:42:19;24.30;50.50
47252;DHT22;32991;51.374;11.586;2022-07-06T13:44:46;24.30;51.00
47252;DHT22;32991;51.374;11.586;2022-07-06T13:47:14;24.40;50.70
47252;DHT22;32991;51.374;11.586;2022-07-06T13:49:40;24.60;49.70
47252;DHT22;32991;51.374;11.586;2022-07-06T13:52:09;24.50;50.10
47252;DHT22;32991;51.374;11.586;2022-07-06T13:54:36;24.20;50.40
47252;DHT22;32991;51.374;11.586;2022-07-06T13:57:03;23.90;51.30
47252;DHT22;32991;51.374;11.586;2022-07-06T13:59:31;23.70;51.40
47252;DHT22;32991;51.374;11.586;2022-07-06T14:01:58;23.60;52.30
47252;DHT22;32991;51.374;11.586;2022-07-06T14:04:26;23.80;51.70
47252;DHT22;32991;51.374;11.586;2022-07-06T14:06:53;23.90;51.50
47252;DHT22;32991;51.374;11.586;2022-07-06T14:09:20;24.10;51.60
47252;DHT22;32991;51.374;11.586;2022-07-06T14:11:47;23.80;51.00
47252;DHT22;32991;51.374;11.586;2022-07-06T14:14:13;23.60;52.00
47252;DHT22;32991;51.374;11.586;2022-07-06T14:16:40;23.70;51.40
47252;DHT22;32991;51.374;11.586;2022-07-06T14:19:08;23.80;51.30
47252;DHT22;32991;51.374;11.586;2022-07-06T14:21:34;23.80;51.00
47252;DHT22;32991;51.374;11.586;2022-07-06T14:24:01;23.60;50.80
47252;DHT22;32991;51.374;11.586;2022-07-06T14:26:28;23.20;52.00
47252;DHT22;32991;51.374;11.586;2022-07-06T14:28:55;22.80;52.80
47252;DHT22;32991;51.374;11.586;2022-07-06T14:31:22;22.80;54.40
47252;DHT22;32991;51.374;11.586;2022-07-06T14:33:49;22.80;53.90
47252;DHT22;32991;51.374;11.586;2022-07-06T14:36:17;22.80;54.10
47252;DHT22;32991;51.374;11.586;2022-07-06T14:38:43;22.60;53.90
47252;DHT22;32991;51.374;11.586;2022-07-06T14:41:10;22.60;54.40
47252;DHT22;32991;51.374;11.586;2022-07-06T14:43:37;22.50;53.70
47252;DHT22;32991;51.374;11.586;2022-07-06T14:46:04;22.40;53.70
47252;DHT22;32991;51.374;11.586;2022-07-06T14:48:32;22.20;53.70
47252;DHT22;32991;51.374;11.586;2022-07-06T14:50:58;22.10;54.20
47252;DHT22;32991;51.374;11.586;2022-07-06T14:53:25;22.10;53.90
47252;DHT22;32991;51.374;11.586;2022-07-06T14:55:53;22.10;53.70
47252;DHT22;32991;51.374;11.586;2022-07-06T14:58:20;22.30;54.00
47252;DHT22;32991;51.374;11.586;2022-07-06T15:00:50;22.40;52.70
47252;DHT22;32991;51.374;11.586;2022-07-06T15:03:24;22.30;52.70
47252;DHT22;32991;51.374;11.586;2022-07-06T15:05:51;22.30;53.20
47252;DHT22;32991;51.374;11.586;2022-07-06T15:08:18;22.30;54.20
47252;DHT22;32991;51.374;11.586;2022-07-06T15:10:45;22.10;54.80
47252;DHT22;32991;51.374;11.586;2022-07-06T15:13:12;22.00;56.10
47252;DHT22;32991;51.374;11.586;2022-07-06T15:15:40;22.00;56.10
47252;DHT22;32991;51.374;11.586;2022-07-06T15:18:22;22.10;56.00
47252;DHT22;32991;51.374;11.586;2022-07-06T15:20:49;22.10;55.10
47252;DHT22;32991;51.374;11.586;2022-07-06T15:23:16;22.20;55.30
47252;DHT22;32991;51.374;11.586;2022-07-06T15:25:43;22.20;55.80
47252;DHT22;32991;51.374;11.586;2022-07-06T15:28:16;22.30;56.10
47252;DHT22;32991;51.374;11.586;2022-07-06T15:30:46;22.40;55.60
47252;DHT22;32991;51.374;11.586;2022-07-06T15:33:13;22.50;55.40
47252;DHT22;32991;51.374;11.586;2022-07-06T15:35:39;22.40;55.20
47252;DHT22;32991;51.374;11.586;2022-07-06T15:38:06;22.40;55.40
47252;DHT22;32991;51.374;11.586;2022-07-06T15:40:34;22.40;55.60
47252;DHT22;32991;51.374;11.586;2022-07-06T15:43:07;22.40;54.70